Long Lake, Washington
Current Conditions -  °F | °C
As of 9:55 PM on Tuesday 21 Oct 2014 (Local Time) from KPWT Reporting Station
Overcast Overcast  
Wind Chill: 55°   Ceiling: 6000
Heat Index: 55°   Visibility: 10mi
Dew Point: 50°   Wind: 12mph
Humidity: 82%   Direction: 190°S
Pressure: 29.79"   Gusts: 22mph
Location:  47.5378°N, 122.589°W
Report Text: KPWT 220455Z AUTO 19010G19KT 10SM OVC060 13/10 A2979 RMK AO1
Loading
Personal Weather Stations






























Interactive Weather Map
Tropical Storm Tracking
New forecast layout! Learn more

10-Day Weather Forecast

Advertisements
Track Severe Weather on mobile